createdAt,value
2023-04-25T00:01:52.973Z,99.90
2023-04-25T00:07:06.538Z,99.90
2023-04-25T00:17:47.381Z,99.90
2023-04-25T00:23:14.406Z,99.90
2023-04-25T00:28:26.093Z,99.90
2023-04-25T00:33:41.841Z,99.90
2023-04-25T00:38:47.867Z,99.90
2023-04-25T00:44:21.909Z,99.90
2023-04-25T00:49:35.178Z,99.90
2023-04-25T00:55:00.870Z,99.90
2023-04-25T01:00:30.753Z,99.90
2023-04-25T01:05:49.289Z,99.90
2023-04-25T01:10:55.327Z,99.90
2023-04-25T01:22:04.324Z,99.90
2023-04-25T01:27:38.154Z,99.90
2023-04-25T01:32:53.494Z,99.90
2023-04-25T01:38:12.542Z,99.90
2023-04-25T01:43:34.388Z,99.90
2023-04-25T01:49:02.054Z,99.90
2023-04-25T01:54:27.256Z,99.90
2023-04-25T01:59:41.849Z,99.90
2023-04-25T02:06:11.257Z,99.90
2023-04-25T02:10:53.916Z,99.90
2023-04-25T02:15:58.951Z,99.90
2023-04-25T02:21:07.125Z,99.90
2023-04-25T02:26:16.255Z,99.90
2023-04-25T02:31:19.272Z,99.90
2023-04-25T02:36:26.818Z,99.90
2023-04-25T02:41:30.226Z,99.90
2023-04-25T02:46:41.285Z,99.90
2023-04-25T02:51:49.735Z,99.90
2023-04-25T03:02:23.775Z,99.90
2023-04-25T03:07:30.408Z,99.90
2023-04-25T03:12:37.520Z,99.90
2023-04-25T03:17:51.903Z,99.90
2023-04-25T03:22:59.889Z,99.90
2023-04-25T03:28:03.718Z,99.90
2023-04-25T03:33:11.929Z,99.90
2023-04-25T03:43:39.330Z,99.90
2023-04-25T03:48:51.579Z,99.90
2023-04-25T03:53:57.019Z,99.90
2023-04-25T03:59:05.432Z,99.90
2023-04-25T04:04:13.004Z,99.90
2023-04-25T04:09:37.263Z,99.90
2023-04-25T04:14:47.054Z,99.90
2023-04-25T04:25:16.215Z,99.90
2023-04-25T04:30:22.188Z,99.90
2023-04-25T04:35:27.203Z,99.90
2023-04-25T04:40:34.234Z,99.90
2023-04-25T04:45:42.159Z,99.90
2023-04-25T04:56:09.365Z,99.90
2023-04-25T05:01:13.294Z,99.90
2023-04-25T05:12:45.782Z,99.90
2023-04-25T05:17:47.757Z,99.90
2023-04-25T05:22:49.620Z,99.90
2023-04-25T05:27:53.500Z,99.90
2023-04-25T05:32:55.598Z,99.90
2023-04-25T05:37:57.689Z,99.90
2023-04-25T05:42:59.945Z,99.90
2023-04-25T05:48:01.907Z,99.90
2023-04-25T05:53:03.807Z,99.90
2023-04-25T05:58:06.817Z,99.90
2023-04-25T06:03:11.175Z,99.90
2023-04-25T06:08:13.155Z,99.90
2023-04-25T06:13:15.077Z,99.90
2023-04-25T06:18:16.971Z,99.90
2023-04-25T06:23:18.907Z,99.90
2023-04-25T06:28:23.054Z,99.90
2023-04-25T06:33:25.430Z,99.90
2023-04-25T06:38:27.280Z,99.90
2023-04-25T06:43:29.256Z,99.90
2023-04-25T06:48:31.226Z,99.90
2023-04-25T06:53:33.092Z,99.90
2023-04-25T06:58:34.971Z,99.90
2023-04-25T07:03:38.493Z,99.90
2023-04-25T07:08:40.559Z,99.90
2023-04-25T07:13:42.396Z,99.90
2023-04-25T07:18:44.420Z,99.90
2023-04-25T07:23:46.444Z,99.90
2023-04-25T07:28:51.991Z,99.90
2023-04-25T07:33:54.078Z,99.90
2023-04-25T07:38:55.893Z,99.90
2023-04-25T07:43:57.877Z,99.90
2023-04-25T07:49:00.329Z,99.90
2023-04-25T07:54:02.281Z,99.90
2023-04-25T07:59:04.235Z,99.90
2023-04-25T08:04:06.694Z,99.90
2023-04-25T08:09:10.488Z,99.90
2023-04-25T08:14:13.217Z,99.90
2023-04-25T08:19:15.246Z,99.90
2023-04-25T08:24:17.180Z,99.90
2023-04-25T08:29:19.216Z,99.90
2023-04-25T08:34:21.829Z,99.90
2023-04-25T08:39:23.885Z,99.90
2023-04-25T08:44:25.948Z,99.90
2023-04-25T08:49:27.789Z,99.90
2023-04-25T08:54:35.419Z,99.90
2023-04-25T08:59:40.056Z,99.90
2023-04-25T09:04:44.225Z,99.90
2023-04-25T09:09:48.174Z,99.90
2023-04-25T09:15:08.078Z,99.90
2023-04-25T09:20:13.425Z,99.90
2023-04-25T09:25:15.916Z,99.90
2023-04-25T09:30:18.157Z,99.90
2023-04-25T09:35:27.556Z,99.90
2023-04-25T09:40:31.478Z,99.90
2023-04-25T09:45:33.433Z,99.90
2023-04-25T09:50:35.335Z,99.90
2023-04-25T09:55:37.419Z,99.90
2023-04-25T10:00:39.440Z,99.90
2023-04-25T10:05:42.148Z,99.90
2023-04-25T10:10:44.429Z,99.90
2023-04-25T10:15:47.109Z,99.90
2023-04-25T10:20:49.105Z,99.90
2023-04-25T10:25:54.925Z,99.90
2023-04-25T10:31:01.578Z,99.90
2023-04-25T10:36:14.979Z,99.90
2023-04-25T10:41:20.088Z,99.90
2023-04-25T10:46:31.813Z,99.90
2023-04-25T10:51:53.967Z,99.90
2023-04-25T10:56:59.493Z,99.90
2023-04-25T11:02:13.900Z,99.90
2023-04-25T11:07:40.762Z,99.90
2023-04-25T11:12:42.778Z,99.90
2023-04-25T11:17:47.505Z,99.90
2023-04-25T11:22:50.999Z,99.90
2023-04-25T11:27:56.969Z,99.90
2023-04-25T11:33:00.948Z,99.90
2023-04-25T11:38:02.940Z,99.90
2023-04-25T11:43:05.217Z,99.90
2023-04-25T11:48:07.344Z,99.90
2023-04-25T11:53:09.534Z,99.90
2023-04-25T11:58:11.462Z,99.90
2023-04-25T12:03:13.540Z,99.90
2023-04-25T12:08:16.735Z,99.90
2023-04-25T12:13:26.103Z,99.90
2023-04-25T12:18:28.861Z,98.30
2023-04-25T12:23:31.663Z,97.80
2023-04-25T12:28:34.259Z,99.10
2023-04-25T12:33:37.691Z,99.90
2023-04-25T12:38:41.253Z,99.90
2023-04-25T12:43:43.505Z,98.20
2023-04-25T12:48:45.604Z,99.90
2023-04-25T12:53:47.646Z,99.90
2023-04-25T12:58:50.416Z,99.50
2023-04-25T13:03:52.841Z,99.90
2023-04-25T13:08:55.410Z,96.00
2023-04-25T13:13:57.424Z,94.70
2023-04-25T13:18:59.390Z,97.50
2023-04-25T13:24:01.262Z,98.20
2023-04-25T13:29:04.759Z,96.80
2023-04-25T13:34:06.982Z,96.80
2023-04-25T13:39:08.846Z,97.60
2023-04-25T13:44:11.502Z,99.30
2023-04-25T13:49:13.689Z,94.60
2023-04-25T13:54:15.641Z,93.30
2023-04-25T13:59:23.434Z,78.20
2023-04-25T14:04:26.168Z,75.80
2023-04-25T14:09:28.419Z,74.20
2023-04-25T14:14:30.287Z,76.00
2023-04-25T14:19:32.116Z,76.70
2023-04-25T14:24:33.961Z,81.80
2023-04-25T14:29:36.143Z,79.40
2023-04-25T14:34:38.137Z,74.50
2023-04-25T14:39:40.122Z,74.80
2023-04-25T14:44:42.048Z,68.80
2023-04-25T14:49:44.957Z,66.60
2023-04-25T14:54:46.908Z,77.20
2023-04-25T14:59:49.075Z,65.30
2023-04-25T15:04:51.267Z,69.20
2023-04-25T15:09:54.562Z,71.00
2023-04-25T15:14:56.645Z,78.60
2023-04-25T15:19:58.526Z,80.60
2023-04-25T15:25:00.339Z,82.80
2023-04-25T15:30:02.376Z,80.30
2023-04-25T15:35:06.981Z,77.70
2023-04-25T15:40:15.466Z,77.20
2023-04-25T15:45:18.132Z,81.30
2023-04-25T15:50:20.076Z,75.80
2023-04-25T15:55:22.681Z,77.00
2023-04-25T16:00:24.801Z,76.90
2023-04-25T16:05:27.026Z,75.50
2023-04-25T16:10:28.877Z,75.30
2023-04-25T16:15:33.913Z,73.20
2023-04-25T16:20:37.178Z,74.30
2023-04-25T16:25:39.145Z,68.30
2023-04-25T16:30:41.477Z,70.30
2023-04-25T16:35:43.336Z,72.20
2023-04-25T16:40:45.333Z,69.10
2023-04-25T16:45:47.348Z,70.40
2023-04-25T16:50:49.346Z,66.20
2023-04-25T16:55:51.435Z,63.30
2023-04-25T17:00:53.947Z,67.80
2023-04-25T17:06:01.287Z,67.40
2023-04-25T17:11:03.835Z,69.00
2023-04-25T17:16:06.408Z,66.10
2023-04-25T17:21:08.993Z,73.80
2023-04-25T17:26:12.358Z,74.10
2023-04-25T17:31:14.286Z,76.50
2023-04-25T17:36:16.375Z,81.90
2023-04-25T17:41:18.927Z,81.90
2023-04-25T17:46:21.541Z,82.00
2023-04-25T17:51:23.719Z,83.70
2023-04-25T17:56:27.489Z,83.90
2023-04-25T18:01:30.437Z,81.40
2023-04-25T18:06:33.152Z,81.30
2023-04-25T18:11:35.144Z,81.30
2023-04-25T18:16:37.015Z,84.60
2023-04-25T18:21:41.397Z,86.20
2023-04-25T18:26:44.685Z,83.60
2023-04-25T18:31:49.335Z,86.00
2023-04-25T18:36:52.729Z,90.90
2023-04-25T18:42:03.255Z,86.60
2023-04-25T18:47:10.277Z,89.60
2023-04-25T18:52:15.082Z,89.90
2023-04-25T18:57:17.930Z,90.60
2023-04-25T19:02:20.315Z,91.60
2023-04-25T19:07:23.440Z,91.70
2023-04-25T19:12:25.714Z,92.60
2023-04-25T19:17:29.740Z,93.00
2023-04-25T19:22:32.859Z,94.20
2023-04-25T19:27:34.737Z,94.80
2023-04-25T19:32:38.049Z,96.40
2023-04-25T19:37:54.084Z,96.30
2023-04-25T19:42:57.228Z,97.00
2023-04-25T19:48:01.019Z,98.30
2023-04-25T19:53:08.868Z,98.30
2023-04-25T19:58:15.037Z,99.80
2023-04-25T20:08:48.488Z,99.90
2023-04-25T20:14:00.028Z,99.90
2023-04-25T20:19:04.710Z,99.90
2023-04-25T20:24:11.181Z,99.90
2023-04-25T20:29:27.417Z,99.90
2023-04-25T20:34:43.344Z,99.90
2023-04-25T20:39:51.841Z,99.90
2023-04-25T20:44:54.869Z,99.90
2023-04-25T20:50:07.946Z,99.90
2023-04-25T20:55:13.298Z,99.90
2023-04-25T21:00:30.824Z,99.90
2023-04-25T21:05:37.325Z,99.90
2023-04-25T21:10:45.428Z,99.90
2023-04-25T21:15:50.400Z,99.90
2023-04-25T21:20:52.865Z,99.90
2023-04-25T21:25:55.343Z,99.90
2023-04-25T21:30:59.232Z,99.90
2023-04-25T21:36:01.711Z,99.90
2023-04-25T21:41:04.287Z,99.90
2023-04-25T21:46:22.365Z,99.90
2023-04-25T21:51:27.212Z,99.90
2023-04-25T21:56:29.464Z,99.90
2023-04-25T22:01:33.795Z,99.90
2023-04-25T22:06:38.857Z,99.90
2023-04-25T22:11:43.766Z,99.90
2023-04-25T22:16:46.653Z,99.90
2023-04-25T22:21:53.073Z,99.90
2023-04-25T22:26:55.944Z,99.90
2023-04-25T22:32:02.952Z,99.90
2023-04-25T22:37:17.629Z,99.90
2023-04-25T22:42:20.815Z,99.90
2023-04-25T22:47:28.817Z,99.90
2023-04-25T22:52:31.140Z,99.90
2023-04-25T22:57:33.453Z,99.90
2023-04-25T23:02:35.855Z,99.90
2023-04-25T23:07:39.124Z,99.90
2023-04-25T23:12:44.186Z,99.90
2023-04-25T23:17:47.800Z,99.90
2023-04-25T23:22:56.848Z,99.90
2023-04-25T23:27:59.036Z,99.90
2023-04-25T23:33:01.461Z,99.90
2023-04-25T23:38:03.924Z,99.90
2023-04-25T23:43:11.997Z,99.90
2023-04-25T23:48:15.531Z,99.90
2023-04-25T23:53:17.680Z,99.90
2023-04-25T23:58:21.150Z,99.90
